sensor_id;sensor_type;location;lat;lon;timestamp;pressure;altitude;pressure_sealevel;temperature;humidity
69306;BME280;56427;51.580;4.656;2022-09-16T00:02:25;101095.81;;;12.15;100.00
69306;BME280;56427;51.580;4.656;2022-09-16T00:04:50;101093.44;;;12.03;100.00
69306;BME280;56427;51.580;4.656;2022-09-16T00:07:15;101092.28;;;11.95;100.00
69306;BME280;56427;51.580;4.656;2022-09-16T00:09:41;101083.13;;;11.91;100.00
69306;BME280;56427;51.580;4.656;2022-09-16T00:12:06;101086.59;;;11.81;100.00
69306;BME280;56427;51.580;4.656;2022-09-16T00:14:32;101081.78;;;11.76;100.00
69306;BME280;56427;51.580;4.656;2022-09-16T00:16:57;101088.75;;;11.75;100.00
69306;BME280;56427;51.580;4.656;2022-09-16T00:19:22;101079.88;;;11.78;100.00
69306;BME280;56427;51.580;4.656;2022-09-16T00:21:48;101087.63;;;11.68;100.00
69306;BME280;56427;51.580;4.656;2022-09-16T00:24:14;101087.38;;;11.71;100.00
69306;BME280;56427;51.580;4.656;2022-09-16T00:26:41;101080.94;;;11.75;100.00
69306;BME280;56427;51.580;4.656;2022-09-16T00:29:06;101082.47;;;11.78;100.00
69306;BME280;56427;51.580;4.656;2022-09-16T00:31:31;101084.16;;;11.89;100.00
69306;BME280;56427;51.580;4.656;2022-09-16T00:33:57;101079.69;;;11.91;100.00
69306;BME280;56427;51.580;4.656;2022-09-16T00:36:22;101086.63;;;11.90;100.00
69306;BME280;56427;51.580;4.656;2022-09-16T00:38:52;101082.91;;;11.83;100.00
69306;BME280;56427;51.580;4.656;2022-09-16T00:41:27;101084.00;;;11.81;100.00
69306;BME280;56427;51.580;4.656;2022-09-16T00:43:59;101080.13;;;11.75;100.00
69306;BME280;56427;51.580;4.656;2022-09-16T00:46:41;101080.56;;;11.80;100.00
69306;BME280;56427;51.580;4.656;2022-09-16T00:49:18;101079.19;;;11.76;100.00
69306;BME280;56427;51.580;4.656;2022-09-16T00:51:45;101080.25;;;11.73;100.00
69306;BME280;56427;51.580;4.656;2022-09-16T00:54:14;101081.63;;;11.68;100.00
69306;BME280;56427;51.580;4.656;2022-09-16T00:56:43;101084.34;;;11.66;100.00
69306;BME280;56427;51.580;4.656;2022-09-16T01:01:36;101078.97;;;11.58;100.00
69306;BME280;56427;51.580;4.656;2022-09-16T01:04:06;101074.56;;;11.58;100.00
69306;BME280;56427;51.580;4.656;2022-09-16T01:06:37;101084.47;;;11.65;100.00
69306;BME280;56427;51.580;4.656;2022-09-16T01:09:03;101093.56;;;11.80;100.00
69306;BME280;56427;51.580;4.656;2022-09-16T01:11:29;101089.69;;;11.95;100.00
69306;BME280;56427;51.580;4.656;2022-09-16T01:13:54;101094.69;;;12.08;100.00
69306;BME280;56427;51.580;4.656;2022-09-16T01:16:44;101087.72;;;12.09;100.00
69306;BME280;56427;51.580;4.656;2022-09-16T01:19:28;101088.66;;;12.08;100.00
69306;BME280;56427;51.580;4.656;2022-09-16T01:22:04;101094.00;;;12.06;100.00
69306;BME280;56427;51.580;4.656;2022-09-16T01:25:00;101095.53;;;12.19;100.00
69306;BME280;56427;51.580;4.656;2022-09-16T01:27:52;101096.38;;;12.19;100.00
69306;BME280;56427;51.580;4.656;2022-09-16T01:30:42;101100.78;;;12.28;100.00
69306;BME280;56427;51.580;4.656;2022-09-16T01:33:19;101100.50;;;12.31;100.00
69306;BME280;56427;51.580;4.656;2022-09-16T01:35:54;101104.34;;;12.27;100.00
69306;BME280;56427;51.580;4.656;2022-09-16T01:41:24;101096.31;;;12.40;100.00
69306;BME280;56427;51.580;4.656;2022-09-16T01:44:27;101092.88;;;12.40;100.00
69306;BME280;56427;51.580;4.656;2022-09-16T01:47:19;101091.88;;;12.31;100.00
69306;BME280;56427;51.580;4.656;2022-09-16T01:50:07;101090.66;;;12.25;100.00
69306;BME280;56427;51.580;4.656;2022-09-16T01:55:27;101090.03;;;12.12;100.00
69306;BME280;56427;51.580;4.656;2022-09-16T01:57:58;101094.25;;;12.03;100.00
69306;BME280;56427;51.580;4.656;2022-09-16T02:00:25;101098.59;;;11.93;100.00
69306;BME280;56427;51.580;4.656;2022-09-16T02:03:01;101101.31;;;11.91;100.00
69306;BME280;56427;51.580;4.656;2022-09-16T02:05:54;101092.22;;;11.86;100.00
69306;BME280;56427;51.580;4.656;2022-09-16T02:11:15;101090.91;;;11.70;100.00
69306;BME280;56427;51.580;4.656;2022-09-16T02:16:27;101083.94;;;11.71;100.00
69306;BME280;56427;51.580;4.656;2022-09-16T02:18:58;101086.53;;;11.71;100.00
69306;BME280;56427;51.580;4.656;2022-09-16T02:21:28;101085.78;;;11.80;100.00
69306;BME280;56427;51.580;4.656;2022-09-16T02:23:58;101088.53;;;11.88;100.00
69306;BME280;56427;51.580;4.656;2022-09-16T02:26:28;101090.06;;;11.91;100.00
69306;BME280;56427;51.580;4.656;2022-09-16T02:28:55;101090.72;;;11.83;100.00
69306;BME280;56427;51.580;4.656;2022-09-16T02:31:24;101093.19;;;11.85;100.00
69306;BME280;56427;51.580;4.656;2022-09-16T02:33:55;101094.56;;;11.89;100.00
69306;BME280;56427;51.580;4.656;2022-09-16T02:36:24;101106.53;;;11.91;100.00
69306;BME280;56427;51.580;4.656;2022-09-16T02:39:01;101122.34;;;12.09;100.00
69306;BME280;56427;51.580;4.656;2022-09-16T02:41:29;101122.13;;;12.22;100.00
69306;BME280;56427;51.580;4.656;2022-09-16T02:43:55;101120.06;;;12.16;100.00
69306;BME280;56427;51.580;4.656;2022-09-16T02:51:40;101103.31;;;12.09;100.00
69306;BME280;56427;51.580;4.656;2022-09-16T02:54:22;101101.38;;;12.01;100.00
69306;BME280;56427;51.580;4.656;2022-09-16T02:56:49;101099.72;;;12.00;100.00
69306;BME280;56427;51.580;4.656;2022-09-16T02:59:15;101102.56;;;11.97;100.00
69306;BME280;56427;51.580;4.656;2022-09-16T03:01:43;101101.25;;;11.82;100.00
69306;BME280;56427;51.580;4.656;2022-09-16T03:04:14;101104.16;;;11.88;100.00
69306;BME280;56427;51.580;4.656;2022-09-16T03:06:40;101100.00;;;11.76;100.00
69306;BME280;56427;51.580;4.656;2022-09-16T03:09:08;101097.00;;;11.81;100.00
69306;BME280;56427;51.580;4.656;2022-09-16T03:15:13;101093.22;;;11.64;100.00
69306;BME280;56427;51.580;4.656;2022-09-16T03:23:28;101098.41;;;11.64;100.00
69306;BME280;56427;51.580;4.656;2022-09-16T03:26:18;101095.13;;;11.62;100.00
69306;BME280;56427;51.580;4.656;2022-09-16T03:34:42;101128.34;;;11.58;100.00
69306;BME280;56427;51.580;4.656;2022-09-16T03:37:13;101128.97;;;11.71;100.00
69306;BME280;56427;51.580;4.656;2022-09-16T03:39:40;101118.72;;;11.70;100.00
69306;BME280;56427;51.580;4.656;2022-09-16T03:42:07;101116.41;;;11.55;100.00
69306;BME280;56427;51.580;4.656;2022-09-16T03:44:37;101109.38;;;11.67;100.00
69306;BME280;56427;51.580;4.656;2022-09-16T03:47:04;101104.66;;;11.82;100.00
69306;BME280;56427;51.580;4.656;2022-09-16T03:49:29;101108.88;;;11.73;100.00
69306;BME280;56427;51.580;4.656;2022-09-16T03:51:55;101112.22;;;11.64;100.00
69306;BME280;56427;51.580;4.656;2022-09-16T03:54:21;101111.22;;;11.55;100.00
69306;BME280;56427;51.580;4.656;2022-09-16T03:56:47;101119.88;;;11.45;100.00
69306;BME280;56427;51.580;4.656;2022-09-16T03:59:12;101115.28;;;11.48;100.00
69306;BME280;56427;51.580;4.656;2022-09-16T04:01:38;101121.31;;;11.49;100.00
69306;BME280;56427;51.580;4.656;2022-09-16T04:04:03;101124.72;;;11.49;100.00
69306;BME280;56427;51.580;4.656;2022-09-16T04:06:28;101119.63;;;11.48;100.00
69306;BME280;56427;51.580;4.656;2022-09-16T04:08:54;101115.78;;;11.42;100.00
69306;BME280;56427;51.580;4.656;2022-09-16T04:11:21;101116.59;;;11.42;100.00
69306;BME280;56427;51.580;4.656;2022-09-16T04:13:46;101106.53;;;11.49;100.00
69306;BME280;56427;51.580;4.656;2022-09-16T04:16:18;101113.50;;;11.49;100.00
69306;BME280;56427;51.580;4.656;2022-09-16T04:18:45;101113.75;;;11.46;100.00
69306;BME280;56427;51.580;4.656;2022-09-16T04:21:11;101111.28;;;11.44;100.00
69306;BME280;56427;51.580;4.656;2022-09-16T04:23:36;101105.34;;;11.53;100.00
69306;BME280;56427;51.580;4.656;2022-09-16T04:26:02;101106.41;;;11.51;100.00
69306;BME280;56427;51.580;4.656;2022-09-16T04:28:29;101118.75;;;11.37;100.00
69306;BME280;56427;51.580;4.656;2022-09-16T04:30:58;101110.03;;;11.38;100.00
69306;BME280;56427;51.580;4.656;2022-09-16T04:33:27;101111.97;;;11.46;100.00
69306;BME280;56427;51.580;4.656;2022-09-16T04:35:53;101113.88;;;11.44;100.00
69306;BME280;56427;51.580;4.656;2022-09-16T04:38:18;101117.09;;;11.36;100.00
69306;BME280;56427;51.580;4.656;2022-09-16T04:40:43;101145.88;;;11.23;100.00
69306;BME280;56427;51.580;4.656;2022-09-16T04:43:09;101144.91;;;11.24;100.00
69306;BME280;56427;51.580;4.656;2022-09-16T04:45:34;101139.84;;;11.23;100.00
69306;BME280;56427;51.580;4.656;2022-09-16T04:47:59;101143.06;;;11.15;100.00
69306;BME280;56427;51.580;4.656;2022-09-16T04:50:25;101147.34;;;11.05;100.00
69306;BME280;56427;51.580;4.656;2022-09-16T04:52:50;101140.50;;;11.04;100.00
69306;BME280;56427;51.580;4.656;2022-09-16T04:55:19;101127.69;;;10.91;100.00
69306;BME280;56427;51.580;4.656;2022-09-16T04:57:47;101130.84;;;10.95;100.00
69306;BME280;56427;51.580;4.656;2022-09-16T05:00:12;101133.91;;;11.00;100.00
69306;BME280;56427;51.580;4.656;2022-09-16T05:02:38;101122.81;;;10.98;100.00
69306;BME280;56427;51.580;4.656;2022-09-16T05:05:03;101121.22;;;10.85;100.00
69306;BME280;56427;51.580;4.656;2022-09-16T05:07:28;101116.34;;;10.92;100.00
69306;BME280;56427;51.580;4.656;2022-09-16T05:09:54;101107.03;;;10.90;100.00
69306;BME280;56427;51.580;4.656;2022-09-16T05:12:20;101094.66;;;10.82;100.00
69306;BME280;56427;51.580;4.656;2022-09-16T05:14:45;101103.19;;;10.73;100.00
69306;BME280;56427;51.580;4.656;2022-09-16T05:17:10;101091.25;;;10.81;100.00
69306;BME280;56427;51.580;4.656;2022-09-16T05:19:36;101094.16;;;10.88;100.00
69306;BME280;56427;51.580;4.656;2022-09-16T05:22:01;101091.22;;;10.93;100.00
69306;BME280;56427;51.580;4.656;2022-09-16T05:24:32;101089.09;;;10.86;100.00
69306;BME280;56427;51.580;4.656;2022-09-16T05:26:58;101089.44;;;10.93;100.00
69306;BME280;56427;51.580;4.656;2022-09-16T05:29:23;101105.00;;;10.93;100.00
69306;BME280;56427;51.580;4.656;2022-09-16T05:31:48;101100.66;;;10.94;100.00
69306;BME280;56427;51.580;4.656;2022-09-16T05:34:17;101106.34;;;10.88;100.00
69306;BME280;56427;51.580;4.656;2022-09-16T05:36:43;101108.91;;;10.99;100.00
69306;BME280;56427;51.580;4.656;2022-09-16T05:39:11;101115.97;;;10.97;100.00
69306;BME280;56427;51.580;4.656;2022-09-16T05:41:37;101117.38;;;11.01;100.00
69306;BME280;56427;51.580;4.656;2022-09-16T05:44:03;101119.66;;;10.94;100.00
69306;BME280;56427;51.580;4.656;2022-09-16T05:46:28;101116.69;;;10.99;100.00
69306;BME280;56427;51.580;4.656;2022-09-16T05:48:54;101116.69;;;10.99;100.00
69306;BME280;56427;51.580;4.656;2022-09-16T05:51:21;101116.03;;;10.85;100.00
69306;BME280;56427;51.580;4.656;2022-09-16T05:53:48;101109.41;;;10.81;100.00
69306;BME280;56427;51.580;4.656;2022-09-16T05:56:16;101105.66;;;10.74;100.00
69306;BME280;56427;51.580;4.656;2022-09-16T05:58:42;101109.88;;;10.86;100.00
69306;BME280;56427;51.580;4.656;2022-09-16T06:01:13;101106.78;;;10.93;100.00
69306;BME280;56427;51.580;4.656;2022-09-16T06:03:40;101103.50;;;10.91;100.00
69306;BME280;56427;51.580;4.656;2022-09-16T06:06:10;101109.44;;;11.14;100.00
69306;BME280;56427;51.580;4.656;2022-09-16T06:08:37;101111.84;;;11.48;100.00
69306;BME280;56427;51.580;4.656;2022-09-16T06:11:04;101116.22;;;11.47;100.00
69306;BME280;56427;51.580;4.656;2022-09-16T06:13:30;101130.16;;;11.46;100.00
69306;BME280;56427;51.580;4.656;2022-09-16T06:15:56;101150.94;;;11.25;100.00
69306;BME280;56427;51.580;4.656;2022-09-16T06:18:23;101143.59;;;11.30;100.00
69306;BME280;56427;51.580;4.656;2022-09-16T06:20:49;101147.53;;;11.13;100.00
69306;BME280;56427;51.580;4.656;2022-09-16T06:23:15;101154.78;;;11.10;100.00
69306;BME280;56427;51.580;4.656;2022-09-16T06:25:41;101153.38;;;11.05;100.00
69306;BME280;56427;51.580;4.656;2022-09-16T06:28:07;101142.09;;;11.16;100.00
69306;BME280;56427;51.580;4.656;2022-09-16T06:30:34;101142.34;;;11.13;100.00
69306;BME280;56427;51.580;4.656;2022-09-16T06:32:59;101141.22;;;11.06;100.00
69306;BME280;56427;51.580;4.656;2022-09-16T06:35:24;101151.03;;;11.02;100.00
69306;BME280;56427;51.580;4.656;2022-09-16T06:37:50;101145.78;;;11.14;100.00
69306;BME280;56427;51.580;4.656;2022-09-16T06:40:15;101136.00;;;11.06;100.00
69306;BME280;56427;51.580;4.656;2022-09-16T06:42:41;101134.09;;;11.08;100.00
69306;BME280;56427;51.580;4.656;2022-09-16T06:45:07;101132.28;;;11.20;100.00
69306;BME280;56427;51.580;4.656;2022-09-16T06:47:32;101130.78;;;11.17;100.00
69306;BME280;56427;51.580;4.656;2022-09-16T06:49:58;101135.28;;;11.36;100.00
69306;BME280;56427;51.580;4.656;2022-09-16T06:52:24;101134.53;;;11.46;100.00
69306;BME280;56427;51.580;4.656;2022-09-16T06:54:49;101134.88;;;11.73;100.00
69306;BME280;56427;51.580;4.656;2022-09-16T06:57:15;101135.31;;;11.78;100.00
69306;BME280;56427;51.580;4.656;2022-09-16T06:59:40;101129.56;;;13.26;100.00
69306;BME280;56427;51.580;4.656;2022-09-16T07:02:05;101131.28;;;14.22;100.00
69306;BME280;56427;51.580;4.656;2022-09-16T07:04:31;101126.22;;;14.20;100.00
69306;BME280;56427;51.580;4.656;2022-09-16T07:06:56;101127.13;;;15.20;100.00
69306;BME280;56427;51.580;4.656;2022-09-16T07:09:23;101132.19;;;14.86;100.00
69306;BME280;56427;51.580;4.656;2022-09-16T07:11:48;101134.03;;;14.20;100.00
69306;BME280;56427;51.580;4.656;2022-09-16T07:14:13;101135.59;;;14.13;100.00
69306;BME280;56427;51.580;4.656;2022-09-16T07:16:39;101140.38;;;13.70;100.00
69306;BME280;56427;51.580;4.656;2022-09-16T07:19:04;101136.56;;;13.55;100.00
69306;BME280;56427;51.580;4.656;2022-09-16T07:21:30;101138.59;;;13.12;100.00
69306;BME280;56427;51.580;4.656;2022-09-16T07:23:57;101130.94;;;12.91;100.00
69306;BME280;56427;51.580;4.656;2022-09-16T07:26:25;101132.84;;;12.99;100.00
69306;BME280;56427;51.580;4.656;2022-09-16T07:28:51;101131.91;;;13.29;100.00
69306;BME280;56427;51.580;4.656;2022-09-16T07:31:29;101139.84;;;12.88;100.00
69306;BME280;56427;51.580;4.656;2022-09-16T07:33:56;101139.31;;;13.34;100.00
69306;BME280;56427;51.580;4.656;2022-09-16T07:36:26;101144.13;;;14.05;100.00
69306;BME280;56427;51.580;4.656;2022-09-16T07:38:54;101151.63;;;14.56;100.00
69306;BME280;56427;51.580;4.656;2022-09-16T07:41:23;101153.53;;;14.26;100.00
69306;BME280;56427;51.580;4.656;2022-09-16T07:43:49;101161.34;;;14.26;100.00
69306;BME280;56427;51.580;4.656;2022-09-16T07:46:16;101154.28;;;15.09;100.00
69306;BME280;56427;51.580;4.656;2022-09-16T07:48:43;101158.41;;;15.92;100.00
69306;BME280;56427;51.580;4.656;2022-09-16T07:51:17;101149.75;;;15.30;100.00
69306;BME280;56427;51.580;4.656;2022-09-16T07:53:43;101158.34;;;15.04;100.00
69306;BME280;56427;51.580;4.656;2022-09-16T07:56:14;101166.19;;;14.48;100.00
69306;BME280;56427;51.580;4.656;2022-09-16T07:58:41;101164.63;;;14.38;100.00
69306;BME280;56427;51.580;4.656;2022-09-16T08:01:07;101168.25;;;14.17;100.00
69306;BME280;56427;51.580;4.656;2022-09-16T08:03:34;101171.78;;;14.26;100.00
69306;BME280;56427;51.580;4.656;2022-09-16T08:06:01;101171.66;;;14.27;100.00
69306;BME280;56427;51.580;4.656;2022-09-16T08:08:28;101179.44;;;13.99;100.00
69306;BME280;56427;51.580;4.656;2022-09-16T08:10:55;101177.88;;;13.50;100.00
69306;BME280;56427;51.580;4.656;2022-09-16T08:13:21;101178.97;;;13.28;100.00
69306;BME280;56427;51.580;4.656;2022-09-16T08:15:46;101179.25;;;13.34;100.00
69306;BME280;56427;51.580;4.656;2022-09-16T08:18:12;101184.84;;;13.10;100.00
69306;BME280;56427;51.580;4.656;2022-09-16T08:20:37;101193.28;;;12.93;100.00
69306;BME280;56427;51.580;4.656;2022-09-16T08:23:03;101194.69;;;12.97;100.00
69306;BME280;56427;51.580;4.656;2022-09-16T08:25:28;101190.38;;;12.76;100.00
69306;BME280;56427;51.580;4.656;2022-09-16T08:27:55;101195.22;;;12.91;100.00
69306;BME280;56427;51.580;4.656;2022-09-16T08:30:20;101193.97;;;12.75;100.00
69306;BME280;56427;51.580;4.656;2022-09-16T08:32:45;101192.47;;;12.82;100.00
69306;BME280;56427;51.580;4.656;2022-09-16T08:35:11;101185.84;;;12.68;100.00
69306;BME280;56427;51.580;4.656;2022-09-16T08:37:38;101192.56;;;12.71;100.00
69306;BME280;56427;51.580;4.656;2022-09-16T08:40:04;101186.19;;;12.95;100.00
69306;BME280;56427;51.580;4.656;2022-09-16T08:45:19;101192.09;;;12.97;100.00
69306;BME280;56427;51.580;4.656;2022-09-16T08:50:51;101197.25;;;14.14;100.00
69306;BME280;56427;51.580;4.656;2022-09-16T08:53:42;101191.03;;;15.44;100.00
69306;BME280;56427;51.580;4.656;2022-09-16T08:56:13;101205.53;;;15.56;100.00
69306;BME280;56427;51.580;4.656;2022-09-16T08:58:45;101206.81;;;14.33;100.00
69306;BME280;56427;51.580;4.656;2022-09-16T09:01:33;101199.50;;;13.89;100.00
69306;BME280;56427;51.580;4.656;2022-09-16T09:04:00;101198.59;;;13.61;100.00
69306;BME280;56427;51.580;4.656;2022-09-16T09:06:57;101187.31;;;13.21;100.00
69306;BME280;56427;51.580;4.656;2022-09-16T09:12:16;101194.63;;;13.47;100.00
69306;BME280;56427;51.580;4.656;2022-09-16T09:17:34;101201.34;;;13.69;100.00
69306;BME280;56427;51.580;4.656;2022-09-16T09:40:16;101181.22;;;15.82;100.00
69306;BME280;56427;51.580;4.656;2022-09-16T09:45:28;101181.56;;;15.07;100.00
69306;BME280;56427;51.580;4.656;2022-09-16T09:48:03;101204.94;;;14.63;100.00
69306;BME280;56427;51.580;4.656;2022-09-16T09:50:44;101207.50;;;13.29;100.00
69306;BME280;56427;51.580;4.656;2022-09-16T09:55:36;101249.78;;;12.00;100.00
69306;BME280;56427;51.580;4.656;2022-09-16T10:00:46;101240.06;;;12.23;100.00
69306;BME280;56427;51.580;4.656;2022-09-16T10:03:14;101238.16;;;12.04;100.00
69306;BME280;56427;51.580;4.656;2022-09-16T10:05:42;101240.38;;;12.08;100.00
69306;BME280;56427;51.580;4.656;2022-09-16T10:10:45;101237.63;;;12.10;100.00
69306;BME280;56427;51.580;4.656;2022-09-16T10:13:11;101237.63;;;12.10;100.00
69306;BME280;56427;51.580;4.656;2022-09-16T10:15:38;101241.84;;;12.22;100.00
69306;BME280;56427;51.580;4.656;2022-09-16T10:18:11;101240.31;;;12.50;100.00
69306;BME280;56427;51.580;4.656;2022-09-16T10:20:40;101245.94;;;12.86;100.00
69306;BME280;56427;51.580;4.656;2022-09-16T10:23:12;101259.22;;;13.24;100.00
69306;BME280;56427;51.580;4.656;2022-09-16T10:25:39;101272.09;;;13.16;100.00
69306;BME280;56427;51.580;4.656;2022-09-16T10:28:22;101256.59;;;12.74;100.00
69306;BME280;56427;51.580;4.656;2022-09-16T10:30:56;101259.44;;;12.09;100.00
69306;BME280;56427;51.580;4.656;2022-09-16T10:33:29;101268.69;;;11.90;100.00
69306;BME280;56427;51.580;4.656;2022-09-16T10:36:00;101255.44;;;11.61;100.00
69306;BME280;56427;51.580;4.656;2022-09-16T10:38:35;101257.03;;;11.85;100.00
69306;BME280;56427;51.580;4.656;2022-09-16T10:41:13;101249.84;;;11.77;100.00
69306;BME280;56427;51.580;4.656;2022-09-16T10:43:46;101238.31;;;11.70;100.00
69306;BME280;56427;51.580;4.656;2022-09-16T10:46:14;101234.72;;;11.71;100.00
69306;BME280;56427;51.580;4.656;2022-09-16T10:48:41;101232.25;;;12.02;100.00
69306;BME280;56427;51.580;4.656;2022-09-16T10:53:54;101216.28;;;11.74;100.00
69306;BME280;56427;51.580;4.656;2022-09-16T10:56:23;101221.88;;;11.90;100.00
69306;BME280;56427;51.580;4.656;2022-09-16T10:59:09;101218.75;;;12.08;100.00
69306;BME280;56427;51.580;4.656;2022-09-16T11:07:23;101243.19;;;13.48;100.00
69306;BME280;56427;51.580;4.656;2022-09-16T11:10:28;101242.53;;;13.75;100.00
69306;BME280;56427;51.580;4.656;2022-09-16T11:15:39;101239.63;;;13.88;100.00
69306;BME280;56427;51.580;4.656;2022-09-16T11:26:58;101229.75;;;13.62;100.00
69306;BME280;56427;51.580;4.656;2022-09-16T11:38:26;101237.06;;;14.26;100.00
69306;BME280;56427;51.580;4.656;2022-09-16T11:41:09;101243.09;;;15.19;100.00
69306;BME280;56427;51.580;4.656;2022-09-16T11:46:31;101235.25;;;13.69;100.00
69306;BME280;56427;51.580;4.656;2022-09-16T11:57:15;101251.09;;;11.94;100.00
69306;BME280;56427;51.580;4.656;2022-09-16T12:00:20;101240.00;;;11.81;100.00
69306;BME280;56427;51.580;4.656;2022-09-16T12:06:17;101246.78;;;11.72;100.00
69306;BME280;56427;51.580;4.656;2022-09-16T12:11:48;101246.06;;;12.02;100.00
69306;BME280;56427;51.580;4.656;2022-09-16T12:14:29;101240.47;;;12.28;100.00
69306;BME280;56427;51.580;4.656;2022-09-16T12:17:02;101247.41;;;12.18;100.00
69306;BME280;56427;51.580;4.656;2022-09-16T12:19:40;101237.44;;;12.23;100.00
69306;BME280;56427;51.580;4.656;2022-09-16T12:22:18;101251.16;;;12.25;100.00
69306;BME280;56427;51.580;4.656;2022-09-16T12:24:50;101243.03;;;11.97;100.00
69306;BME280;56427;51.580;4.656;2022-09-16T12:27:49;101230.81;;;12.09;100.00
69306;BME280;56427;51.580;4.656;2022-09-16T12:30:19;101233.13;;;12.64;100.00
69306;BME280;56427;51.580;4.656;2022-09-16T12:33:13;101230.59;;;12.52;100.00
69306;BME280;56427;51.580;4.656;2022-09-16T12:35:55;101231.56;;;12.92;100.00
69306;BME280;56427;51.580;4.656;2022-09-16T12:38:21;101238.81;;;13.49;100.00
69306;BME280;56427;51.580;4.656;2022-09-16T12:41:07;101241.09;;;14.01;100.00
69306;BME280;56427;51.580;4.656;2022-09-16T12:52:31;101236.91;;;13.60;100.00
69306;BME280;56427;51.580;4.656;2022-09-16T13:00:23;101240.44;;;13.40;100.00
69306;BME280;56427;51.580;4.656;2022-09-16T13:02:53;101236.06;;;13.40;100.00
69306;BME280;56427;51.580;4.656;2022-09-16T13:05:32;101234.50;;;13.28;100.00
69306;BME280;56427;51.580;4.656;2022-09-16T13:08:03;101240.25;;;13.22;100.00
69306;BME280;56427;51.580;4.656;2022-09-16T13:10:32;101241.03;;;12.93;100.00
69306;BME280;56427;51.580;4.656;2022-09-16T13:13:00;101234.97;;;13.43;100.00
69306;BME280;56427;51.580;4.656;2022-09-16T13:15:30;101245.34;;;13.23;100.00
69306;BME280;56427;51.580;4.656;2022-09-16T13:20:48;101244.34;;;13.05;100.00
69306;BME280;56427;51.580;4.656;2022-09-16T13:23:23;101244.81;;;13.30;100.00
69306;BME280;56427;51.580;4.656;2022-09-16T13:26:11;101255.56;;;13.85;100.00
69306;BME280;56427;51.580;4.656;2022-09-16T13:28:43;101250.06;;;13.69;100.00
69306;BME280;56427;51.580;4.656;2022-09-16T13:34:01;101254.22;;;13.01;100.00
69306;BME280;56427;51.580;4.656;2022-09-16T13:36:31;101257.31;;;12.55;100.00
69306;BME280;56427;51.580;4.656;2022-09-16T13:39:05;101248.31;;;12.59;100.00
69306;BME280;56427;51.580;4.656;2022-09-16T13:49:51;101255.41;;;13.38;100.00
69306;BME280;56427;51.580;4.656;2022-09-16T13:52:26;101264.06;;;13.68;100.00
69306;BME280;56427;51.580;4.656;2022-09-16T13:54:54;101259.22;;;14.12;100.00
69306;BME280;56427;51.580;4.656;2022-09-16T14:00:19;101250.09;;;14.26;100.00
69306;BME280;56427;51.580;4.656;2022-09-16T14:05:54;101254.56;;;14.63;100.00
69306;BME280;56427;51.580;4.656;2022-09-16T14:13:51;101250.81;;;14.28;92.77
69306;BME280;56427;51.580;4.656;2022-09-16T14:16:21;101248.53;;;14.05;92.56
69306;BME280;56427;51.580;4.656;2022-09-16T14:21:58;101263.38;;;13.95;98.28
69306;BME280;56427;51.580;4.656;2022-09-16T14:24:23;101260.19;;;13.91;100.00
69306;BME280;56427;51.580;4.656;2022-09-16T14:26:53;101267.63;;;13.67;100.00
69306;BME280;56427;51.580;4.656;2022-09-16T14:29:19;101273.75;;;13.26;100.00
69306;BME280;56427;51.580;4.656;2022-09-16T14:31:46;101259.19;;;13.14;100.00
69306;BME280;56427;51.580;4.656;2022-09-16T14:36:51;101246.00;;;12.34;100.00
69306;BME280;56427;51.580;4.656;2022-09-16T14:39:20;101260.59;;;12.47;100.00
69306;BME280;56427;51.580;4.656;2022-09-16T14:44:24;101265.03;;;12.35;100.00
69306;BME280;56427;51.580;4.656;2022-09-16T14:47:14;101263.03;;;12.39;100.00
69306;BME280;56427;51.580;4.656;2022-09-16T14:49:38;101268.63;;;12.65;100.00
69306;BME280;56427;51.580;4.656;2022-09-16T14:52:16;101262.28;;;12.58;100.00
69306;BME280;56427;51.580;4.656;2022-09-16T14:54:45;101255.59;;;12.65;100.00
69306;BME280;56427;51.580;4.656;2022-09-16T14:57:22;101278.94;;;12.45;100.00
69306;BME280;56427;51.580;4.656;2022-09-16T14:59:49;101298.53;;;12.49;100.00
69306;BME280;56427;51.580;4.656;2022-09-16T15:02:25;101322.38;;;12.24;100.00
69306;BME280;56427;51.580;4.656;2022-09-16T15:04:55;101309.78;;;11.75;100.00
69306;BME280;56427;51.580;4.656;2022-09-16T15:07:23;101301.47;;;11.38;100.00
69306;BME280;56427;51.580;4.656;2022-09-16T15:10:01;101292.56;;;11.08;100.00
69306;BME280;56427;51.580;4.656;2022-09-16T15:12:32;101286.78;;;10.93;100.00
69306;BME280;56427;51.580;4.656;2022-09-16T15:15:03;101283.72;;;10.99;100.00
69306;BME280;56427;51.580;4.656;2022-09-16T15:17:28;101268.94;;;11.00;100.00
69306;BME280;56427;51.580;4.656;2022-09-16T15:19:58;101255.38;;;10.85;100.00
69306;BME280;56427;51.580;4.656;2022-09-16T15:22:25;101243.09;;;10.98;100.00
69306;BME280;56427;51.580;4.656;2022-09-16T15:24:53;101246.06;;;10.94;100.00
69306;BME280;56427;51.580;4.656;2022-09-16T15:27:29;101244.63;;;11.12;100.00
69306;BME280;56427;51.580;4.656;2022-09-16T15:29:58;101242.47;;;11.29;100.00
69306;BME280;56427;51.580;4.656;2022-09-16T15:32:26;101249.84;;;11.45;100.00
69306;BME280;56427;51.580;4.656;2022-09-16T15:35:31;101257.16;;;11.83;100.00
69306;BME280;56427;51.580;4.656;2022-09-16T15:38:10;101260.44;;;12.18;100.00
69306;BME280;56427;51.580;4.656;2022-09-16T15:40:37;101262.78;;;12.00;100.00
69306;BME280;56427;51.580;4.656;2022-09-16T15:43:17;101274.53;;;11.83;100.00
69306;BME280;56427;51.580;4.656;2022-09-16T15:45:57;101308.94;;;11.31;100.00
69306;BME280;56427;51.580;4.656;2022-09-16T15:48:24;101314.13;;;11.31;100.00